Time;durP1;ratioP1;P1;durP2;ratioP2;P2;SDS_P1;SDS_P2;PMS_P1;PMS_P2;Temp;Humidity;BMP_temperature;BMP_pressure;BME280_temperature;BME280_humidity;BME280_pressure;Samples;Min_cycle;Max_cycle;Signal;HPM_P1;HPM_P2
2020/12/20 00:00:22;;;;;;;27.13;16.27;;;;;;;3.00;100.00;97544.31;5014620;28;20188;-86
2020/12/20 00:02:50;;;;;;;31.87;18.20;;;;;;;3.07;100.00;97532.66;5014984;28;20734;-86
2020/12/20 00:05:18;;;;;;;31.63;19.63;;;;;;;3.02;100.00;97539.88;5015003;28;20195;-86
2020/12/20 00:07:45;;;;;;;26.40;15.80;;;;;;;3.10;100.00;97540.31;5014578;28;20234;-86
2020/12/20 00:10:13;;;;;;;27.80;17.07;;;;;;;3.08;100.00;97536.97;5014009;28;20676;-87
2020/12/20 00:12:40;;;;;;;28.93;17.37;;;;;;;2.86;100.00;97549.38;5014459;28;20303;-86
2020/12/20 00:15:07;;;;;;;31.23;18.00;;;;;;;2.96;100.00;97545.41;5014089;28;20245;-87
2020/12/20 00:17:35;;;;;;;24.53;14.80;;;;;;;3.09;100.00;97543.00;5014718;28;20601;-86
2020/12/20 00:20:02;;;;;;;30.77;17.13;;;;;;;2.79;100.00;97546.25;5014278;28;20202;-86
2020/12/20 00:22:29;;;;;;;26.37;15.57;;;;;;;2.58;100.00;97552.56;5014596;28;20568;-86
2020/12/20 00:24:55;;;;;;;27.93;15.40;;;;;;;2.58;100.00;97549.97;5014246;28;20202;-86
2020/12/20 00:27:24;;;;;;;26.43;15.30;;;;;;;2.58;100.00;97553.41;5014222;28;20294;-86
2020/12/20 00:29:51;;;;;;;24.57;14.93;;;;;;;2.64;100.00;97554.84;5013771;28;20575;-86
2020/12/20 00:32:17;;;;;;;22.57;14.27;;;;;;;2.74;100.00;97556.06;5014003;28;20207;-86
2020/12/20 00:34:45;;;;;;;27.23;17.13;;;;;;;2.71;100.00;97552.78;5013864;28;20238;-86
2020/12/20 00:37:13;;;;;;;25.23;16.13;;;;;;;2.77;100.00;97557.63;5013786;28;20200;-86
2020/12/20 00:39:40;;;;;;;27.53;15.90;;;;;;;2.75;100.00;97549.94;5013436;28;20203;-86
2020/12/20 00:42:08;;;;;;;24.33;13.97;;;;;;;2.69;100.00;97555.44;5013880;28;20204;-86
2020/12/20 00:44:35;;;;;;;22.13;14.03;;;;;;;2.76;100.00;97554.22;5014183;28;20707;-85
2020/12/20 00:47:04;;;;;;;23.27;15.37;;;;;;;2.71;100.00;97551.03;5013703;28;20294;-85
2020/12/20 00:49:32;;;;;;;26.43;16.60;;;;;;;2.77;100.00;97553.31;5013616;28;20249;-86
2020/12/20 00:52:01;;;;;;;23.17;14.90;;;;;;;2.76;100.00;97553.38;5013894;28;20207;-86
2020/12/20 00:54:28;;;;;;;26.97;16.13;;;;;;;2.83;100.00;97546.94;5013689;28;20799;-86
2020/12/20 00:56:55;;;;;;;21.80;14.70;;;;;;;2.82;100.00;97546.09;5013846;28;20607;-86
2020/12/20 00:59:22;;;;;;;32.53;19.83;;;;;;;2.86;100.00;97545.03;5013728;28;20199;-87
2020/12/20 01:01:49;;;;;;;27.10;18.07;;;;;;;2.88;100.00;97531.97;5013499;28;20235;-86
2020/12/20 01:04:17;;;;;;;28.67;17.17;;;;;;;2.90;100.00;97534.47;5013445;28;20195;-86
2020/12/20 01:06:44;;;;;;;28.57;17.73;;;;;;;2.72;100.00;97534.53;5013767;28;20301;-87
2020/12/20 01:09:16;;;;;;;25.33;15.50;;;;;;;2.61;100.00;97535.06;5013530;28;20577;-86
2020/12/20 01:11:43;;;;;;;26.10;17.00;;;;;;;2.64;100.00;97541.88;5013484;28;20275;-86
2020/12/20 01:14:10;;;;;;;24.83;15.53;;;;;;;2.67;100.00;97538.25;5012914;28;20188;-85
2020/12/20 01:16:37;;;;;;;22.67;14.17;;;;;;;2.64;100.00;97528.91;5013078;28;20247;-86
2020/12/20 01:19:04;;;;;;;22.27;14.37;;;;;;;2.70;100.00;97540.69;5013281;28;20203;-86
2020/12/20 01:21:31;;;;;;;22.67;13.97;;;;;;;2.69;100.00;97529.47;5012564;28;20220;-86
2020/12/20 01:23:57;;;;;;;22.47;14.83;;;;;;;2.78;100.00;97528.19;5012758;28;20199;-86
2020/12/20 01:26:28;;;;;;;24.93;13.87;;;;;;;2.77;100.00;97537.75;5013040;28;20206;-86
2020/12/20 01:28:56;;;;;;;21.00;13.50;;;;;;;2.75;100.00;97523.16;5013180;28;20695;-86
2020/12/20 01:31:23;;;;;;;18.47;13.13;;;;;;;2.86;100.00;97523.41;5013043;28;20235;-86
2020/12/20 01:33:49;;;;;;;22.27;14.00;;;;;;;2.78;100.00;97523.00;5013219;28;20589;-86
2020/12/20 01:36:17;;;;;;;24.50;13.80;;;;;;;2.79;100.00;97524.66;5013086;28;20269;-86
2020/12/20 01:38:45;;;;;;;22.73;14.50;;;;;;;2.83;100.00;97526.19;5012797;28;20187;-85
2020/12/20 01:41:12;;;;;;;24.13;14.77;;;;;;;2.78;100.00;97525.59;5012961;28;20201;-85
2020/12/20 01:43:48;;;;;;;22.37;14.57;;;;;;;2.74;100.00;97524.06;5012564;28;20672;-85
2020/12/20 01:46:16;;;;;;;19.40;12.50;;;;;;;2.72;100.00;97525.91;5012684;28;20206;-85
2020/12/20 01:48:44;;;;;;;25.50;12.50;;;;;;;2.69;100.00;97520.84;5012486;28;20242;-85
2020/12/20 01:51:11;;;;;;;16.63;11.37;;;;;;;2.70;100.00;97519.94;5012910;28;20659;-85
2020/12/20 01:53:40;;;;;;;19.07;12.20;;;;;;;2.67;100.00;97514.91;5012461;28;20195;-86
2020/12/20 01:56:08;;;;;;;16.90;12.17;;;;;;;2.74;100.00;97508.50;5012530;28;20270;-86
2020/12/20 01:58:37;;;;;;;18.17;10.40;;;;;;;2.69;100.00;97521.69;5012442;28;20191;-86
2020/12/20 02:01:06;;;;;;;20.90;11.40;;;;;;;2.65;100.00;97511.56;5012522;28;20200;-86
2020/12/20 02:03:33;;;;;;;17.43;10.70;;;;;;;2.66;100.00;97510.63;5012722;28;20263;-85
2020/12/20 02:06:00;;;;;;;14.53;11.10;;;;;;;2.80;100.00;97511.59;5012374;28;20191;-85
2020/12/20 02:08:27;;;;;;;17.57;11.57;;;;;;;2.67;100.00;97504.50;5012709;28;20230;-85
2020/12/20 02:11:11;;;;;;;16.70;13.70;;;;;;;2.47;100.00;97515.94;5012396;28;20196;-86
2020/12/20 02:13:42;;;;;;;17.33;11.50;;;;;;;2.62;100.00;97508.19;5012555;28;20626;-85
2020/12/20 02:16:12;;;;;;;15.60;10.07;;;;;;;2.61;100.00;97516.06;5012340;28;20697;-86
2020/12/20 02:18:40;;;;;;;17.23;10.30;;;;;;;2.44;100.00;97513.50;5012300;28;20195;-86
2020/12/20 02:21:14;;;;;;;16.90;10.83;;;;;;;2.44;100.00;97513.50;5012554;28;20199;-86
2020/12/20 02:23:42;;;;;;;14.87;9.93;;;;;;;2.53;100.00;97513.00;5012263;28;20206;-86
2020/12/20 02:26:10;;;;;;;17.30;10.50;;;;;;;2.52;100.00;97511.34;5012464;28;20207;-86
2020/12/20 02:28:37;;;;;;;16.57;10.63;;;;;;;2.57;100.00;97504.19;5012505;28;20262;-86
2020/12/20 02:31:04;;;;;;;18.30;11.70;;;;;;;2.55;100.00;97506.00;5012187;28;20200;-85
2020/12/20 02:33:31;;;;;;;16.77;11.37;;;;;;;2.59;100.00;97510.94;5015913;28;20279;-85
2020/12/20 02:35:58;;;;;;;18.33;11.10;;;;;;;2.60;100.00;97509.22;5016007;28;20309;-85
2020/12/20 02:38:26;;;;;;;16.97;11.17;;;;;;;2.61;100.00;97496.13;5015975;28;20290;-85
2020/12/20 02:40:53;;;;;;;18.27;11.90;;;;;;;2.57;100.00;97496.38;5016250;28;20223;-86
2020/12/20 02:43:20;;;;;;;15.37;10.80;;;;;;;2.61;100.00;97500.50;5016352;28;20235;-86
2020/12/20 02:45:47;;;;;;;16.30;10.40;;;;;;;2.68;100.00;97501.03;5015941;28;20294;-85
2020/12/20 02:48:14;;;;;;;15.23;10.70;;;;;;;2.69;100.00;97494.91;5016244;28;20204;-86
2020/12/20 02:50:40;;;;;;;17.13;11.07;;;;;;;2.71;100.00;97496.50;5015741;28;20344;-86
2020/12/20 02:53:07;;;;;;;17.07;12.23;;;;;;;2.72;100.00;97505.97;5015793;28;20199;-86
2020/12/20 02:55:35;;;;;;;14.40;10.20;;;;;;;2.52;100.00;97509.56;5015729;28;20262;-86
2020/12/20 02:58:02;;;;;;;15.30;10.07;;;;;;;2.44;100.00;97505.72;5015403;28;20208;-85
2020/12/20 03:00:29;;;;;;;15.63;10.87;;;;;;;2.46;100.00;97506.47;5016136;28;20199;-86
2020/12/20 03:02:56;;;;;;;16.37;11.50;;;;;;;2.58;100.00;97504.09;5015500;28;20290;-86
2020/12/20 03:05:23;;;;;;;17.60;12.13;;;;;;;2.76;100.00;97498.84;5015663;28;20196;-85
2020/12/20 03:07:50;;;;;;;16.97;12.00;;;;;;;2.67;100.00;97501.91;5015575;28;20209;-86
2020/12/20 03:10:17;;;;;;;16.97;12.93;;;;;;;2.59;100.00;97507.50;5016158;28;20273;-86
2020/12/20 03:12:45;;;;;;;14.50;10.80;;;;;;;2.60;100.00;97504.84;5015385;28;20669;-86
2020/12/20 03:15:13;;;;;;;13.63;10.20;;;;;;;2.64;100.00;97509.88;5015539;28;20238;-86
2020/12/20 03:17:40;;;;;;;19.33;12.57;;;;;;;2.62;100.00;97499.56;5015167;28;20196;-86
2020/12/20 03:20:07;;;;;;;19.53;13.50;;;;;;;2.58;100.00;97504.09;5015650;28;20565;-86
2020/12/20 03:22:34;;;;;;;18.13;12.57;;;;;;;2.59;100.00;97510.94;5015413;28;20202;-86
2020/12/20 03:25:00;;;;;;;19.17;13.70;;;;;;;2.43;100.00;97507.47;5015576;28;20200;-85
2020/12/20 03:27:27;;;;;;;17.77;11.93;;;;;;;2.46;100.00;97509.91;5015508;28;20202;-86
2020/12/20 03:29:55;;;;;;;18.57;12.77;;;;;;;2.58;100.00;97506.69;5015111;28;20206;-85
2020/12/20 03:32:22;;;;;;;15.63;11.87;;;;;;;2.64;100.00;97496.91;5015235;28;20251;-85
2020/12/20 03:34:49;;;;;;;17.07;12.47;;;;;;;2.59;100.00;97499.72;5014981;28;20310;-86
2020/12/20 03:37:16;;;;;;;17.17;12.50;;;;;;;2.50;100.00;97508.84;5014925;28;20206;-85
2020/12/20 03:39:43;;;;;;;14.30;10.83;;;;;;;2.54;100.00;97505.16;5015093;28;20241;-85
2020/12/20 03:42:10;;;;;;;14.30;10.70;;;;;;;2.49;100.00;97509.72;5015017;28;20559;-85
2020/12/20 03:44:36;;;;;;;15.80;9.90;;;;;;;2.23;100.00;97513.66;5013958;28;20195;-85
2020/12/20 03:47:07;;;;;;;12.67;9.60;;;;;;;2.07;100.00;97510.97;5014724;28;20691;-85
2020/12/20 03:49:34;;;;;;;13.30;10.10;;;;;;;2.14;100.00;97511.50;5014655;28;20200;-86
2020/12/20 03:52:01;;;;;;;16.07;10.13;;;;;;;2.03;100.00;97508.63;5014891;28;20573;-85
2020/12/20 03:54:28;;;;;;;18.20;11.80;;;;;;;2.25;100.00;97504.06;5014619;28;20238;-85
2020/12/20 03:56:55;;;;;;;14.93;11.27;;;;;;;2.22;100.00;97509.41;5014562;28;20230;-85
2020/12/20 03:59:22;;;;;;;16.57;11.37;;;;;;;2.22;100.00;97509.41;5014846;28;20207;-86
2020/12/20 04:01:49;;;;;;;19.27;12.00;;;;;;;2.37;100.00;97505.19;5015051;28;20279;-85
2020/12/20 04:04:17;;;;;;;16.33;11.67;;;;;;;2.38;100.00;97507.69;5014663;28;20294;-85
2020/12/20 04:06:44;;;;;;;19.93;13.53;;;;;;;2.41;100.00;97518.84;5014376;28;20231;-85
2020/12/20 04:09:11;;;;;;;16.77;12.77;;;;;;;2.37;100.00;97515.56;5014307;28;20238;-86
2020/12/20 04:11:38;;;;;;;18.97;13.20;;;;;;;2.58;100.00;97511.03;5014267;28;20203;-86
2020/12/20 04:14:05;;;;;;;18.63;12.00;;;;;;;2.68;100.00;97506.22;5014082;28;20195;-85
2020/12/20 04:16:31;;;;;;;15.60;11.50;;;;;;;2.73;100.00;97515.41;5014250;28;20208;-86
2020/12/20 04:18:58;;;;;;;16.00;10.63;;;;;;;2.69;100.00;97518.25;5014747;28;20204;-85
2020/12/20 04:21:26;;;;;;;16.47;11.50;;;;;;;2.62;100.00;97517.75;5014441;28;20231;-85
2020/12/20 04:23:53;;;;;;;22.07;13.17;;;;;;;2.58;100.00;97519.66;5014589;28;20349;-86
2020/12/20 04:26:19;;;;;;;19.00;12.13;;;;;;;2.56;100.00;97524.09;5014506;28;20203;-86
2020/12/20 04:28:46;;;;;;;18.70;12.83;;;;;;;2.26;100.00;97526.47;5013972;28;20261;-86
2020/12/20 04:31:13;;;;;;;18.23;13.17;;;;;;;2.25;100.00;97527.41;5014000;28;20196;-85
2020/12/20 04:33:40;;;;;;;18.40;13.47;;;;;;;2.24;100.00;97532.66;5014183;28;20199;-85
2020/12/20 04:36:07;;;;;;;19.03;13.37;;;;;;;2.38;100.00;97541.41;5014355;28;20281;-86
2020/12/20 04:38:35;;;;;;;19.97;13.30;;;;;;;2.62;100.00;97541.09;5014262;28;20195;-86
2020/12/20 04:41:02;;;;;;;19.63;13.03;;;;;;;2.44;100.00;97542.03;5013890;28;20261;-85
2020/12/20 04:43:29;;;;;;;20.13;13.77;;;;;;;2.43;100.00;97536.03;5013745;28;20265;-86
2020/12/20 04:45:58;;;;;;;20.83;14.80;;;;;;;2.34;100.00;97533.88;5013668;28;20249;-85
2020/12/20 04:48:35;;;;;;;19.03;13.83;;;;;;;2.43;100.00;97543.81;5013658;28;20235;-86
2020/12/20 04:51:03;;;;;;;23.90;14.10;;;;;;;2.12;100.00;97544.47;5013692;28;20192;-86
2020/12/20 04:53:30;;;;;;;24.67;15.93;;;;;;;2.17;100.00;97549.44;5013583;28;20207;-86
2020/12/20 04:56:01;;;;;;;19.27;13.17;;;;;;;2.00;100.00;97553.69;5013522;28;20262;-86
2020/12/20 04:58:28;;;;;;;20.43;14.27;;;;;;;1.94;100.00;97554.00;5013392;28;20286;-86
2020/12/20 05:00:55;;;;;;;18.37;13.43;;;;;;;1.93;100.00;97557.50;5013845;28;20714;-86
2020/12/20 05:03:22;;;;;;;19.60;12.40;;;;;;;2.07;100.00;97568.03;5013343;28;20234;-86
2020/12/20 05:05:48;;;;;;;20.63;13.77;;;;;;;2.17;100.00;97562.41;5013589;28;20620;-86
2020/12/20 05:08:17;;;;;;;20.40;15.50;;;;;;;2.25;100.00;97555.94;5013811;28;20717;-86
2020/12/20 05:10:44;;;;;;;30.90;27.27;;;;;;;2.02;100.00;97559.66;5013249;28;20292;-86
2020/12/20 05:13:12;;;;;;;31.90;28.10;;;;;;;2.00;100.00;97565.81;5013474;28;20665;-86
2020/12/20 05:15:39;;;;;;;21.83;16.70;;;;;;;1.96;100.00;97570.31;5013065;28;20235;-86
2020/12/20 05:18:07;;;;;;;17.30;13.13;;;;;;;2.11;100.00;97569.59;5013119;28;20203;-86
2020/12/20 05:20:41;;;;;;;20.70;13.83;;;;;;;2.04;100.00;97573.34;5014412;28;20640;-86
2020/12/20 05:23:09;;;;;;;20.97;14.57;;;;;;;2.19;100.00;97566.59;5013283;28;20254;-86
2020/12/20 05:25:38;;;;;;;19.03;13.97;;;;;;;2.03;100.00;97569.09;5013181;28;20196;-86
2020/12/20 05:28:13;;;;;;;20.07;14.00;;;;;;;1.91;100.00;97572.28;5012753;28;20213;-86
2020/12/20 05:30:41;;;;;;;23.43;13.33;;;;;;;2.05;100.00;97576.81;5013412;28;20731;-86
2020/12/20 05:33:08;;;;;;;17.90;12.43;;;;;;;2.23;100.00;97585.47;5012632;28;20196;-85
2020/12/20 05:35:36;;;;;;;17.43;12.33;;;;;;;2.04;100.00;97573.34;5012746;28;20242;-85
2020/12/20 05:38:04;;;;;;;19.03;13.67;;;;;;;2.25;100.00;97578.41;5012918;28;20610;-86
2020/12/20 05:40:33;;;;;;;17.57;12.97;;;;;;;2.22;100.00;97575.97;5012672;28;20203;-86
2020/12/20 05:43:02;;;;;;;19.97;13.53;;;;;;;2.27;100.00;97576.59;5012748;28;20207;-86
2020/12/20 05:45:32;;;;;;;18.50;13.63;;;;;;;2.31;100.00;97570.34;5012524;28;20200;-86
2020/12/20 05:47:59;;;;;;;19.90;13.37;;;;;;;2.34;100.00;97572.78;5012455;28;20223;-86
2020/12/20 05:50:29;;;;;;;17.10;12.13;;;;;;;2.35;100.00;97574.47;5012764;28;20207;-86
2020/12/20 05:53:04;;;;;;;19.17;14.80;;;;;;;2.34;100.00;97578.81;5012631;28;20227;-86
2020/12/20 05:55:38;;;;;;;34.87;22.87;;;;;;;2.39;100.00;97578.59;5012556;28;20218;-86
2020/12/20 05:58:12;;;;;;;21.80;15.33;;;;;;;2.39;100.00;97583.78;5012671;28;20192;-85
2020/12/20 06:00:41;;;;;;;18.27;12.27;;;;;;;2.36;100.00;97589.97;5012252;28;20190;-85
2020/12/20 06:03:09;;;;;;;16.50;12.87;;;;;;;2.43;100.00;97582.72;5011991;28;20262;-85
2020/12/20 06:05:37;;;;;;;17.43;12.00;;;;;;;2.42;100.00;97582.78;5012195;28;20730;-84
2020/12/20 06:10:54;;;;;;;20.97;15.00;;;;;;;2.24;100.00;97587.97;5009524;28;20200;-85
2020/12/20 06:13:22;;;;;;;26.50;17.47;;;;;;;2.29;100.00;97582.56;5011875;28;20286;-85
2020/12/20 06:15:53;;;;;;;23.70;16.50;;;;;;;2.27;100.00;97589.56;5012211;28;20783;-85
2020/12/20 06:18:25;;;;;;;23.50;16.27;;;;;;;2.35;100.00;97584.84;5011973;28;20228;-84
2020/12/20 06:20:54;;;;;;;20.87;15.33;;;;;;;2.47;100.00;97586.84;5012261;28;20250;-85
2020/12/20 06:23:23;;;;;;;21.27;14.23;;;;;;;2.19;100.00;97594.31;5011797;28;20207;-84
2020/12/20 06:25:51;;;;;;;19.57;13.70;;;;;;;2.26;100.00;97587.91;5011853;28;20231;-83
2020/12/20 06:28:21;;;;;;;20.77;14.97;;;;;;;2.35;100.00;97592.63;5011855;28;20254;-85
2020/12/20 06:30:48;;;;;;;25.13;16.53;;;;;;;2.33;100.00;97590.13;5011965;28;20199;-84
2020/12/20 06:33:28;;;;;;;22.47;14.57;;;;;;;2.10;100.00;97599.00;5011716;28;20239;-84
2020/12/20 06:35:56;;;;;;;23.73;15.57;;;;;;;2.11;100.00;97597.25;5011946;28;20273;-85
2020/12/20 06:38:25;;;;;;;25.40;16.43;;;;;;;2.01;100.00;97608.97;5011720;28;20195;-84
2020/12/20 06:40:52;;;;;;;21.07;13.20;;;;;;;1.92;100.00;97599.88;5011825;28;20744;-84
2020/12/20 06:43:29;;;;;;;22.13;13.77;;;;;;;2.11;100.00;97603.31;5011429;28;20734;-83
2020/12/20 06:45:56;;;;;;;23.43;14.23;;;;;;;2.08;100.00;97598.25;5011859;28;20195;-83
2020/12/20 06:48:38;;;;;;;22.93;14.53;;;;;;;2.21;100.00;97600.25;5011520;28;20206;-84
2020/12/20 06:51:06;;;;;;;26.77;17.27;;;;;;;2.01;100.00;97602.06;5012051;28;20282;-84
2020/12/20 06:53:51;;;;;;;26.30;17.47;;;;;;;2.09;100.00;97594.75;5011259;28;20254;-83
2020/12/20 06:56:19;;;;;;;24.53;16.13;;;;;;;2.09;100.00;97597.34;5011838;28;20226;-84
2020/12/20 06:58:47;;;;;;;27.63;18.83;;;;;;;2.15;100.00;97593.63;5011510;28;20239;-83
2020/12/20 07:01:36;;;;;;;32.17;19.53;;;;;;;2.09;100.00;97596.50;5011876;28;20203;-85
2020/12/20 07:04:04;;;;;;;35.13;19.23;;;;;;;2.03;100.00;97592.44;5011618;28;20234;-86
2020/12/20 07:06:31;;;;;;;25.40;16.03;;;;;;;2.09;100.00;97592.16;5011532;28;20199;-85
2020/12/20 07:09:03;;;;;;;41.67;25.87;;;;;;;2.36;100.00;97596.91;5011534;28;20195;-85
2020/12/20 07:11:30;;;;;;;47.87;30.50;;;;;;;2.51;100.00;97600.50;5011664;28;20235;-86
2020/12/20 07:13:58;;;;;;;70.17;42.50;;;;;;;2.45;100.00;97608.59;5011527;28;20226;-83
2020/12/20 07:16:37;;;;;;;317.50;183.60;;;;;;;2.48;100.00;97598.88;4992165;28;20649;-86
2020/12/20 07:19:06;;;;;;;85.77;55.30;;;;;;;2.56;100.00;97611.47;4993236;28;20650;-84
2020/12/20 07:22:02;;;;;;;25.07;18.13;;;;;;;2.47;100.00;97610.19;4995422;28;20250;-86
2020/12/20 07:24:31;;;;;;;19.23;13.67;;;;;;;2.59;100.00;97619.13;4995183;28;20645;-84
2020/12/20 07:27:01;;;;;;;28.50;21.30;;;;;;;2.47;100.00;97623.19;4995189;28;20200;-84
2020/12/20 07:29:32;;;;;;;22.13;15.97;;;;;;;2.22;100.00;97625.25;4995260;28;20238;-85
2020/12/20 07:32:01;;;;;;;25.53;14.87;;;;;;;2.16;100.00;97628.19;4995400;28;20189;-85
2020/12/20 07:34:29;;;;;;;27.57;17.30;;;;;;;2.14;100.00;97625.63;4995542;28;20598;-86
2020/12/20 07:36:56;;;;;;;28.50;20.50;;;;;;;2.21;100.00;97633.97;4995243;28;20264;-85
2020/12/20 07:39:24;;;;;;;25.57;17.07;;;;;;;2.06;100.00;97631.19;4995466;28;20219;-85
2020/12/20 07:41:51;;;;;;;23.17;14.43;;;;;;;2.12;100.00;97636.09;4994995;28;20230;-85
2020/12/20 07:44:18;;;;;;;23.23;15.63;;;;;;;2.12;100.00;97643.03;4995792;28;20247;-86
2020/12/20 07:46:44;;;;;;;22.07;15.10;;;;;;;2.32;100.00;97635.16;4995111;28;20201;-84
2020/12/20 07:49:13;;;;;;;25.53;18.30;;;;;;;2.41;100.00;97638.19;4994877;28;20200;-87
2020/12/20 07:51:41;;;;;;;25.30;17.30;;;;;;;2.50;100.00;97636.00;4995069;28;20627;-84
2020/12/20 07:54:09;;;;;;;27.00;15.13;;;;;;;2.30;100.00;97636.97;4994653;28;20197;-85
2020/12/20 07:56:38;;;;;;;28.07;15.53;;;;;;;2.35;100.00;97649.69;4994805;28;20236;-85
2020/12/20 07:59:07;;;;;;;24.50;16.23;;;;;;;2.51;100.00;97640.28;4994769;28;20239;-85
2020/12/20 08:01:35;;;;;;;52.70;36.37;;;;;;;2.49;100.00;97647.28;4994852;28;20775;-85
2020/12/20 08:04:07;;;;;;;26.47;19.57;;;;;;;2.44;100.00;97645.84;4994740;28;20246;-86
2020/12/20 08:06:35;;;;;;;37.17;25.20;;;;;;;2.49;100.00;97649.03;4994680;28;20189;-86
2020/12/20 08:09:05;;;;;;;27.40;17.40;;;;;;;2.52;100.00;97651.47;4994494;28;20199;-86
2020/12/20 08:11:32;;;;;;;33.07;22.63;;;;;;;2.32;100.00;97652.44;4994473;28;20689;-86
2020/12/20 08:14:01;;;;;;;25.87;18.03;;;;;;;2.29;100.00;97653.44;4994579;28;20204;-86
2020/12/20 08:16:29;;;;;;;23.80;15.43;;;;;;;2.37;100.00;97650.47;5013790;28;20754;-85
2020/12/20 08:19:00;;;;;;;25.63;17.07;;;;;;;2.45;100.00;97650.94;5014154;28;20630;-86
2020/12/20 08:21:51;;;;;;;27.20;17.27;;;;;;;2.52;100.00;97647.13;5014058;28;20256;-85
2020/12/20 08:24:20;;;;;;;20.50;14.37;;;;;;;2.58;100.00;97649.44;5005035;28;20286;-85
2020/12/20 08:26:48;;;;;;;24.03;14.07;;;;;;;2.71;100.00;97644.47;5013714;28;20290;-84
2020/12/20 08:29:17;;;;;;;26.90;16.80;;;;;;;2.59;100.00;97640.72;5013093;28;20253;-85
2020/12/20 08:31:44;;;;;;;27.00;16.57;;;;;;;2.57;100.00;97639.97;5013961;28;20207;-85
2020/12/20 08:34:19;;;;;;;28.07;22.50;;;;;;;2.67;100.00;97634.31;5013827;28;20231;-85
2020/12/20 08:36:48;;;;;;;25.63;16.27;;;;;;;2.67;100.00;97623.91;5013731;28;20217;-86
2020/12/20 08:39:15;;;;;;;23.50;15.13;;;;;;;2.73;100.00;97621.03;5013554;28;20631;-85
2020/12/20 08:41:43;;;;;;;27.73;14.90;;;;;;;2.76;100.00;97624.31;5014085;28;20222;-85
2020/12/20 08:44:12;;;;;;;17.27;12.53;;;;;;;2.69;100.00;97627.28;5013453;28;20211;-85
2020/12/20 08:46:40;;;;;;;22.53;14.57;;;;;;;2.71;100.00;97621.13;5014017;28;20195;-86
2020/12/20 08:49:11;;;;;;;47.00;34.27;;;;;;;2.78;100.00;97630.28;5013656;28;20655;-85
2020/12/20 08:51:38;;;;;;;25.30;17.73;;;;;;;2.56;100.00;97629.66;5013627;28;20234;-85
2020/12/20 08:54:05;;;;;;;29.63;20.90;;;;;;;2.57;100.00;97627.00;5013511;28;20199;-86
2020/12/20 08:56:32;;;;;;;25.27;16.80;;;;;;;2.49;100.00;97621.31;5013446;28;20227;-86
2020/12/20 08:59:00;;;;;;;25.67;18.20;;;;;;;2.53;100.00;97625.47;5013295;28;20200;-85
2020/12/20 09:01:41;;;;;;;26.87;15.07;;;;;;;2.51;100.00;97624.69;5012969;28;20252;-85
2020/12/20 09:04:10;;;;;;;19.93;13.77;;;;;;;2.54;100.00;97624.56;5013228;28;20270;-85
2020/12/20 09:06:37;;;;;;;20.07;14.47;;;;;;;2.50;100.00;97628.22;5013482;28;20227;-86
2020/12/20 09:09:04;;;;;;;19.20;12.87;;;;;;;2.49;100.00;97626.50;5012986;28;20686;-85
2020/12/20 09:11:31;;;;;;;21.27;14.80;;;;;;;2.52;100.00;97634.16;5013304;28;20557;-86
2020/12/20 09:14:10;;;;;;;23.37;14.73;;;;;;;2.50;100.00;97622.19;5012889;28;20203;-86
2020/12/20 09:16:42;;;;;;;25.93;16.63;;;;;;;2.43;100.00;97621.66;4993492;28;20303;-85
2020/12/20 09:19:11;;;;;;;32.03;17.50;;;;;;;2.57;100.00;97614.03;4993484;28;20246;-88
2020/12/20 09:21:37;;;;;;;23.70;17.47;;;;;;;2.49;100.00;97616.13;4993437;28;20681;-84
2020/12/20 09:24:04;;;;;;;21.83;17.10;;;;;;;2.66;100.00;97623.09;4993480;28;20208;-85
2020/12/20 09:26:31;;;;;;;28.87;17.13;;;;;;;2.58;100.00;97620.88;4993544;28;20258;-86
2020/12/20 09:28:58;;;;;;;25.13;16.23;;;;;;;2.54;100.00;97629.75;4993157;28;20211;-85
2020/12/20 09:31:28;;;;;;;24.97;18.13;;;;;;;2.63;100.00;97623.22;4993025;28;20200;-85
2020/12/20 09:34:00;;;;;;;31.07;18.10;;;;;;;2.56;100.00;97622.72;4993348;28;20239;-85
2020/12/20 09:36:28;;;;;;;23.63;16.93;;;;;;;2.48;100.00;97624.84;4993156;28;20224;-85
2020/12/20 09:38:56;;;;;;;30.43;18.20;;;;;;;2.50;100.00;97612.66;4992619;28;20287;-85
2020/12/20 09:41:25;;;;;;;28.57;19.10;;;;;;;2.52;100.00;97618.59;4992623;28;20576;-85
2020/12/20 09:43:59;;;;;;;23.90;18.00;;;;;;;2.48;100.00;97618.81;4993860;28;20200;-84
2020/12/20 09:46:32;;;;;;;29.90;17.53;;;;;;;2.45;100.00;97618.97;4993816;28;20188;-84
2020/12/20 09:52:27;;;;;;;27.17;18.80;;;;;;;2.58;100.00;97620.03;4934173;29;20199;-84
2020/12/20 09:54:53;;;;;;;25.00;18.30;;;;;;;2.65;100.00;97610.19;4921055;29;20664;-85
2020/12/20 09:57:20;;;;;;;23.87;17.13;;;;;;;2.70;100.00;97616.84;4931161;29;20240;-84
2020/12/20 09:59:47;;;;;;;26.97;17.87;;;;;;;2.68;100.00;97607.44;4931706;29;20294;-84
2020/12/20 10:02:15;;;;;;;29.70;18.27;;;;;;;2.63;100.00;97602.47;4932102;29;20245;-84
2020/12/20 10:04:41;;;;;;;26.23;17.43;;;;;;;2.69;100.00;97596.16;4932992;29;20210;-85
2020/12/20 10:07:08;;;;;;;25.77;17.23;;;;;;;2.78;100.00;97600.88;4932509;29;20199;-85
2020/12/20 10:09:35;;;;;;;22.63;15.77;;;;;;;2.75;100.00;97596.69;4932938;29;20202;-85
2020/12/20 10:12:02;;;;;;;26.47;17.73;;;;;;;2.76;100.00;97587.97;4932905;29;20657;-85
2020/12/20 10:14:29;;;;;;;25.70;16.30;;;;;;;2.91;100.00;97590.69;4936913;29;20332;-85
2020/12/20 10:16:56;;;;;;;23.13;14.13;;;;;;;3.10;100.00;97574.06;4951995;29;20312;-85
2020/12/20 10:19:23;;;;;;;19.53;12.63;;;;;;;2.85;100.00;97574.50;4951763;29;20233;-85
2020/12/20 10:21:51;;;;;;;18.87;13.03;;;;;;;2.80;100.00;97581.69;4961390;28;20294;-83
2020/12/20 10:24:18;;;;;;;23.13;13.90;;;;;;;2.91;100.00;97575.09;4992430;28;20263;-84
2020/12/20 10:26:45;;;;;;;19.77;14.63;;;;;;;2.85;100.00;97573.69;4992590;28;20204;-84
2020/12/20 10:29:14;;;;;;;21.93;14.17;;;;;;;2.87;100.00;97574.44;4992735;28;20200;-84
2020/12/20 10:31:42;;;;;;;20.97;15.03;;;;;;;2.96;100.00;97571.38;4992404;28;20204;-85
2020/12/20 10:34:09;;;;;;;26.47;17.53;;;;;;;3.02;100.00;97567.63;4992352;28;20207;-84
2020/12/20 10:36:38;;;;;;;18.97;13.17;;;;;;;2.93;100.00;97550.75;4992520;28;20259;-85
2020/12/20 10:39:06;;;;;;;19.63;13.20;;;;;;;3.11;100.00;97561.91;4992259;28;20234;-85
2020/12/20 10:41:37;;;;;;;16.90;12.27;;;;;;;3.01;100.00;97560.72;4992046;28;20251;-85
2020/12/20 10:44:06;;;;;;;15.37;11.07;;;;;;;3.04;100.00;97553.59;4992481;28;20623;-86
2020/12/20 10:46:33;;;;;;;20.30;14.20;;;;;;;3.00;100.00;97557.28;4992361;28;20200;-85
2020/12/20 10:49:00;;;;;;;18.13;12.33;;;;;;;2.92;100.00;97551.66;4992030;28;20204;-83
2020/12/20 10:51:28;;;;;;;18.57;12.40;;;;;;;3.01;100.00;97548.59;4992264;28;20207;-85
2020/12/20 10:53:56;;;;;;;18.20;12.27;;;;;;;3.12;100.00;97549.75;4994787;28;20204;-84
2020/12/20 10:56:23;;;;;;;17.97;13.30;;;;;;;3.09;100.00;97545.59;4995777;28;20223;-85
2020/12/20 10:58:50;;;;;;;18.57;12.10;;;;;;;3.04;100.00;97550.19;4995511;28;20211;-85
2020/12/20 11:01:18;;;;;;;18.03;11.67;;;;;;;3.08;100.00;97549.09;4996262;28;20550;-85
2020/12/20 11:03:47;;;;;;;17.33;12.63;;;;;;;3.16;100.00;97543.50;4995568;28;20669;-86
2020/12/20 11:06:18;;;;;;;27.40;18.23;;;;;;;3.28;100.00;97538.47;4996377;28;20200;-86
2020/12/20 11:08:45;;;;;;;34.43;23.70;;;;;;;3.24;100.00;97541.34;4996345;28;20641;-92
2020/12/20 11:11:13;;;;;;;33.27;23.83;;;;;;;3.26;100.00;97540.34;4996914;28;20204;-90
2020/12/20 11:13:42;;;;;;;26.53;18.30;;;;;;;3.31;100.00;97537.50;4996571;28;20212;-91
2020/12/20 11:16:16;;;;;;;20.53;14.83;;;;;;;3.35;100.00;97544.19;5013598;28;20330;-91
2020/12/20 11:18:45;;;;;;;26.50;20.77;;;;;;;3.50;100.00;97545.16;5015796;28;20274;-91
2020/12/20 11:21:12;;;;;;;29.80;19.17;;;;;;;3.49;100.00;97536.47;5015900;28;20200;-93
2020/12/20 11:23:40;;;;;;;17.57;14.03;;;;;;;3.35;100.00;97541.59;5016126;28;20207;-91
2020/12/20 11:26:15;;;;;;;19.90;14.27;;;;;;;3.54;100.00;97542.28;5016109;28;20199;-93
2020/12/20 11:28:43;;;;;;;20.73;15.13;;;;;;;3.55;100.00;97538.75;5015693;28;20274;-91